createdAt,value
2023-04-07T00:00:52.595Z,8765.00
2023-04-07T00:01:52.753Z,8507.00
2023-04-07T00:02:52.697Z,8418.00
2023-04-07T00:03:52.963Z,8283.00
2023-04-07T00:04:52.764Z,8108.00
2023-04-07T00:05:52.773Z,7932.00
2023-04-07T00:06:52.823Z,7775.00
2023-04-07T00:07:57.010Z,7641.00
2023-04-07T00:08:52.851Z,7602.00
2023-04-07T00:09:52.862Z,7507.00
2023-04-07T00:10:52.859Z,7452.00
2023-04-07T00:11:52.837Z,7395.00
2023-04-07T00:12:52.920Z,7379.00
2023-04-07T00:13:53.178Z,7387.00
2023-04-07T00:14:52.839Z,7452.00
2023-04-07T00:15:52.859Z,7631.00
2023-04-07T00:16:52.818Z,7711.00
2023-04-07T00:17:52.864Z,7844.00
2023-04-07T00:18:52.804Z,8041.00
2023-04-07T00:19:52.821Z,8265.00
2023-04-07T00:20:52.799Z,8432.00
2023-04-07T00:21:52.799Z,8489.00
2023-04-07T00:22:52.775Z,8368.00
2023-04-07T00:23:53.011Z,8160.00
2023-04-07T00:24:52.767Z,8060.00
2023-04-07T00:25:52.773Z,7975.00
2023-04-07T00:26:52.755Z,7832.00
2023-04-07T00:27:52.734Z,7764.00
2023-04-07T00:28:52.739Z,7731.00
2023-04-07T00:29:52.714Z,7658.00
2023-04-07T00:30:52.774Z,7481.00
2023-04-07T00:31:52.713Z,7490.00
2023-04-07T00:32:52.745Z,7644.00
2023-04-07T00:33:53.023Z,7904.00
2023-04-07T00:34:52.741Z,8098.00
2023-04-07T00:35:52.849Z,8290.00
2023-04-07T00:36:52.787Z,8539.00
2023-04-07T00:37:52.821Z,8880.00
2023-04-07T00:38:52.862Z,9007.00
2023-04-07T00:39:52.881Z,9004.00
2023-04-07T00:40:52.900Z,9041.00
2023-04-07T00:41:52.923Z,9045.00
2023-04-07T00:42:52.961Z,9048.00
2023-04-07T00:43:53.356Z,9063.00
2023-04-07T00:44:53.031Z,8961.00
2023-04-07T00:45:53.052Z,8919.00
2023-04-07T00:46:53.113Z,8777.00
2023-04-07T00:47:53.151Z,8384.00
2023-04-07T00:48:53.174Z,8017.00
2023-04-07T00:49:53.202Z,7932.00
2023-04-07T00:50:53.232Z,8048.00
2023-04-07T00:51:53.280Z,8034.00
2023-04-07T00:52:53.318Z,8010.00
2023-04-07T00:53:53.620Z,8024.00
2023-04-07T00:54:53.398Z,8012.00
2023-04-07T00:55:53.432Z,7988.00
2023-04-07T00:56:53.458Z,8060.00
2023-04-07T00:57:53.467Z,8054.00
2023-04-07T00:58:53.485Z,8062.00
2023-04-07T00:59:53.507Z,8138.00
2023-04-07T01:00:53.537Z,8175.00
2023-04-07T01:01:53.677Z,8202.00
2023-04-07T01:02:53.769Z,8278.00
2023-04-07T01:03:54.034Z,8374.00
2023-04-07T01:04:53.746Z,8447.00
2023-04-07T01:05:53.628Z,8643.00
2023-04-07T01:06:53.629Z,9131.00
2023-04-07T01:07:53.613Z,9668.00
2023-04-07T01:08:53.609Z,9995.00
2023-04-07T01:09:53.654Z,9978.00
2023-04-07T01:10:53.620Z,9797.00
2023-04-07T01:11:53.618Z,9671.00
2023-04-07T01:12:53.618Z,9530.00
2023-04-07T01:13:53.882Z,9486.00
2023-04-07T01:14:53.630Z,9367.00
2023-04-07T01:15:53.668Z,8914.00
2023-04-07T01:16:55.154Z,8737.00
2023-04-07T01:17:53.633Z,8796.00
2023-04-07T01:18:53.634Z,8776.00
2023-04-07T01:19:53.651Z,8506.00
2023-04-07T01:20:53.658Z,8364.00
2023-04-07T01:21:53.655Z,8101.00
2023-04-07T01:22:53.667Z,7912.00
2023-04-07T01:23:53.866Z,7829.00
2023-04-07T01:24:53.719Z,7759.00
2023-04-07T01:25:53.764Z,7684.00
2023-04-07T01:26:53.822Z,7641.00
2023-04-07T01:27:53.816Z,7520.00
2023-04-07T01:28:53.847Z,7472.00
2023-04-07T01:29:53.883Z,7489.00
2023-04-07T01:30:53.904Z,7473.00
2023-04-07T01:31:53.937Z,7317.00
2023-04-07T01:32:53.965Z,7185.00
2023-04-07T01:33:54.168Z,7138.00
2023-04-07T01:34:53.930Z,7056.00
2023-04-07T01:35:53.949Z,7180.00
2023-04-07T01:36:53.998Z,7411.00
2023-04-07T01:37:53.958Z,7336.00
2023-04-07T01:38:53.979Z,7022.00
2023-04-07T01:39:53.989Z,6930.00
2023-04-07T01:40:54.018Z,6874.00
2023-04-07T01:41:54.056Z,6845.00
2023-04-07T01:42:54.055Z,6830.00
2023-04-07T01:43:54.248Z,6797.00
2023-04-07T01:44:54.097Z,6775.00
2023-04-07T01:45:54.121Z,6957.00
2023-04-07T01:46:54.201Z,6999.00
2023-04-07T01:47:54.166Z,6945.00
2023-04-07T01:48:54.171Z,6945.00
2023-04-07T01:49:54.178Z,7208.00
2023-04-07T01:50:54.208Z,7411.00
2023-04-07T01:51:54.246Z,7429.00
2023-04-07T01:52:54.248Z,7433.00
2023-04-07T01:53:54.409Z,7460.00
2023-04-07T01:54:54.306Z,7548.00
2023-04-07T01:55:54.360Z,7595.00
2023-04-07T01:56:54.388Z,7748.00
2023-04-07T01:57:54.413Z,7886.00
2023-04-07T01:58:54.436Z,8060.00
2023-04-07T01:59:54.458Z,8174.00
2023-04-07T02:00:54.514Z,8303.00
2023-04-07T02:01:54.564Z,8334.00
2023-04-07T02:02:54.588Z,8331.00
2023-04-07T02:03:54.827Z,8398.00
2023-04-07T02:04:54.570Z,8424.00
2023-04-07T02:05:54.573Z,8321.00
2023-04-07T02:06:54.616Z,8234.00
2023-04-07T02:07:54.707Z,8270.00
2023-04-07T02:08:54.643Z,8287.00
2023-04-07T02:09:54.689Z,8467.00
2023-04-07T02:10:54.725Z,8664.00
2023-04-07T02:11:54.740Z,8764.00
2023-04-07T02:12:54.795Z,8803.00
2023-04-07T02:13:55.113Z,8939.00
2023-04-07T02:14:54.905Z,9059.00
2023-04-07T02:15:54.944Z,9170.00
2023-04-07T02:16:55.059Z,9274.00
2023-04-07T02:17:55.108Z,9318.00
2023-04-07T02:18:55.136Z,9300.00
2023-04-07T02:19:55.198Z,9072.00
2023-04-07T02:20:55.231Z,8939.00
2023-04-07T02:21:55.278Z,9004.00
2023-04-07T02:22:55.329Z,9036.00
2023-04-07T02:23:55.564Z,9088.00
2023-04-07T02:24:55.430Z,9165.00
2023-04-07T02:25:55.480Z,9146.00
2023-04-07T02:26:55.510Z,9171.00
2023-04-07T02:27:55.556Z,9114.00
2023-04-07T02:28:55.610Z,9058.00
2023-04-07T02:29:55.611Z,8968.00
2023-04-07T02:30:55.788Z,8878.00
2023-04-07T02:31:55.688Z,8760.00
2023-04-07T02:32:55.692Z,8612.00
2023-04-07T02:33:55.835Z,8573.00
2023-04-07T02:34:55.719Z,8569.00
2023-04-07T02:35:55.747Z,8524.00
2023-04-07T02:36:55.830Z,8505.00
2023-04-07T02:37:55.766Z,8529.00
2023-04-07T02:38:55.818Z,8538.00
2023-04-07T02:39:55.854Z,8624.00
2023-04-07T02:40:55.857Z,8705.00
2023-04-07T02:41:55.860Z,8746.00
2023-04-07T02:42:55.906Z,8669.00
2023-04-07T02:43:56.164Z,8706.00
2023-04-07T02:44:55.926Z,8784.00
2023-04-07T02:45:55.958Z,8847.00
2023-04-07T02:46:55.947Z,8942.00
2023-04-07T02:47:56.002Z,9075.00
2023-04-07T02:48:55.991Z,9194.00
2023-04-07T02:49:56.028Z,9202.00
2023-04-07T02:50:56.033Z,9076.00
2023-04-07T02:51:56.027Z,8931.00
2023-04-07T02:52:56.016Z,8923.00
2023-04-07T02:53:56.354Z,8897.00
2023-04-07T02:54:56.037Z,8901.00
2023-04-07T02:55:56.036Z,8921.00
2023-04-07T02:56:56.035Z,9007.00
2023-04-07T02:57:56.022Z,9073.00
2023-04-07T02:58:56.011Z,9000.00
2023-04-07T02:59:56.016Z,8882.00
2023-04-07T03:00:56.068Z,8786.00
2023-04-07T03:01:56.212Z,8727.00
2023-04-07T03:02:56.136Z,8715.00
2023-04-07T03:03:56.360Z,8829.00
2023-04-07T03:04:56.126Z,9267.00
2023-04-07T03:05:56.149Z,9481.00
2023-04-07T03:06:56.175Z,9195.00
2023-04-07T03:07:56.192Z,8816.00
2023-04-07T03:08:56.223Z,8393.00
2023-04-07T03:09:56.223Z,8153.00
2023-04-07T03:10:56.249Z,7944.00
2023-04-07T03:11:56.283Z,7841.00
2023-04-07T03:12:56.286Z,7754.00
2023-04-07T03:13:56.307Z,7514.00
2023-04-07T03:14:56.342Z,7356.00
2023-04-07T03:15:56.400Z,7201.00
2023-04-07T03:16:56.468Z,7168.00
2023-04-07T03:17:56.457Z,7192.00
2023-04-07T03:18:56.479Z,7242.00
2023-04-07T03:19:56.575Z,7293.00
2023-04-07T03:20:56.532Z,7432.00
2023-04-07T03:21:56.536Z,7282.00
2023-04-07T03:22:56.573Z,7097.00
2023-04-07T03:23:56.609Z,6982.00
2023-04-07T03:24:56.672Z,6994.00
2023-04-07T03:25:56.676Z,7092.00
2023-04-07T03:26:56.700Z,7066.00
2023-04-07T03:27:56.716Z,7067.00
2023-04-07T03:28:56.745Z,7189.00
2023-04-07T03:29:56.778Z,7295.00
2023-04-07T03:30:56.859Z,7339.00
2023-04-07T03:31:56.881Z,7417.00
2023-04-07T03:32:56.916Z,7444.00
2023-04-07T03:33:56.930Z,7475.00
2023-04-07T03:34:56.946Z,7593.00
2023-04-07T03:35:56.997Z,7487.00
2023-04-07T03:36:57.027Z,7374.00
2023-04-07T03:37:57.068Z,7343.00
2023-04-07T03:38:57.084Z,7283.00
2023-04-07T03:39:57.132Z,7295.00
2023-04-07T03:40:57.163Z,7370.00
2023-04-07T03:41:57.200Z,7528.00
2023-04-07T03:42:57.233Z,7669.00
2023-04-07T03:43:57.283Z,7808.00
2023-04-07T03:44:57.318Z,7995.00
2023-04-07T03:45:57.366Z,8228.00
2023-04-07T03:46:57.385Z,8417.00
2023-04-07T03:47:57.479Z,8556.00
2023-04-07T03:48:57.469Z,8621.00
2023-04-07T03:49:57.512Z,8686.00
2023-04-07T03:50:57.599Z,8664.00
2023-04-07T03:51:57.605Z,8623.00
2023-04-07T03:52:57.661Z,8596.00
2023-04-07T03:53:57.718Z,8611.00
2023-04-07T03:54:57.804Z,8628.00
2023-04-07T03:55:57.865Z,8615.00
2023-04-07T03:56:57.861Z,8611.00
2023-04-07T03:57:57.908Z,8669.00
2023-04-07T03:58:57.969Z,8727.00
2023-04-07T03:59:58.007Z,8757.00
2023-04-07T04:00:58.063Z,8767.00
2023-04-07T04:01:58.209Z,8822.00
2023-04-07T04:02:58.226Z,8853.00
2023-04-07T04:03:58.523Z,8862.00
2023-04-07T04:04:58.278Z,8854.00
2023-04-07T04:05:58.293Z,8845.00
2023-04-07T04:06:58.353Z,8865.00
2023-04-07T04:07:58.400Z,8857.00
2023-04-07T04:08:58.422Z,8849.00
2023-04-07T04:09:58.462Z,8895.00
2023-04-07T04:10:58.515Z,8918.00
2023-04-07T04:11:58.568Z,8961.00
2023-04-07T04:12:58.601Z,9001.00
2023-04-07T04:13:58.647Z,9039.00
2023-04-07T04:14:58.722Z,8992.00
2023-04-07T04:15:58.783Z,8919.00
2023-04-07T04:16:58.795Z,8828.00
2023-04-07T04:17:58.900Z,8728.00
2023-04-07T04:18:58.899Z,8692.00
2023-04-07T04:19:58.949Z,8635.00
2023-04-07T04:20:58.972Z,8626.00
2023-04-07T04:21:59.029Z,8655.00
2023-04-07T04:22:59.062Z,8755.00
2023-04-07T04:23:59.126Z,8717.00
2023-04-07T04:24:59.146Z,8706.00
2023-04-07T04:25:59.178Z,8664.00
2023-04-07T04:26:59.229Z,8723.00
2023-04-07T04:27:59.249Z,8981.00
2023-04-07T04:28:59.293Z,9609.00
2023-04-07T04:29:59.336Z,9871.00
2023-04-07T04:30:59.380Z,9882.00
2023-04-07T04:31:59.375Z,9846.00
2023-04-07T04:32:59.423Z,9776.00
2023-04-07T04:33:59.432Z,9855.00
2023-04-07T04:34:59.450Z,9878.00
2023-04-07T04:35:59.472Z,9712.00
2023-04-07T04:36:59.557Z,9671.00
2023-04-07T04:37:59.524Z,9764.00
2023-04-07T04:38:59.538Z,9962.00
2023-04-07T04:39:59.562Z,10114.00
2023-04-07T04:40:59.606Z,10207.00
2023-04-07T04:41:59.601Z,10165.00
2023-04-07T04:42:59.607Z,9978.00
2023-04-07T04:43:59.627Z,9902.00
2023-04-07T04:44:59.669Z,9939.00
2023-04-07T04:45:59.681Z,9893.00
2023-04-07T04:46:59.764Z,9797.00
2023-04-07T04:47:59.755Z,9729.00
2023-04-07T04:48:59.741Z,9757.00
2023-04-07T04:49:59.741Z,9743.00
2023-04-07T04:50:59.767Z,9590.00
2023-04-07T04:51:59.785Z,9435.00
2023-04-07T04:52:59.808Z,9258.00
2023-04-07T04:53:59.808Z,9096.00
2023-04-07T04:54:59.827Z,8914.00
2023-04-07T04:55:59.826Z,8819.00
2023-04-07T04:56:59.840Z,8794.00
2023-04-07T04:57:59.835Z,8781.00
2023-04-07T04:58:59.850Z,8822.00
2023-04-07T04:59:59.843Z,8867.00
2023-04-07T05:00:59.966Z,8827.00
2023-04-07T05:01:59.970Z,8869.00
2023-04-07T05:03:00.060Z,9081.00
2023-04-07T05:04:00.185Z,9385.00
2023-04-07T05:05:00.017Z,9830.00
2023-04-07T05:05:59.887Z,10137.00
2023-04-07T05:06:59.880Z,10228.00
2023-04-07T05:07:59.915Z,10148.00
2023-04-07T05:08:59.912Z,10198.00
2023-04-07T05:09:59.930Z,10207.00
2023-04-07T05:10:59.950Z,10197.00
2023-04-07T05:11:59.977Z,10275.00
2023-04-07T05:12:59.977Z,10497.00
2023-04-07T05:14:00.030Z,10704.00
2023-04-07T05:15:00.007Z,10609.00
2023-04-07T05:16:00.085Z,10690.00
2023-04-07T05:17:00.021Z,10813.00
2023-04-07T05:18:00.086Z,10971.00
2023-04-07T05:19:00.069Z,11226.00
2023-04-07T05:20:00.068Z,11459.00
2023-04-07T05:21:00.118Z,11632.00
2023-04-07T05:22:00.122Z,11903.00
2023-04-07T05:23:00.134Z,11941.00
2023-04-07T05:24:00.143Z,12087.00
2023-04-07T05:25:00.148Z,12195.00
2023-04-07T05:26:00.137Z,12220.00
2023-04-07T05:27:00.115Z,12176.00
2023-04-07T05:28:00.144Z,12041.00
2023-04-07T05:29:00.121Z,11983.00
2023-04-07T05:30:00.146Z,11902.00
2023-04-07T05:31:00.136Z,11852.00
2023-04-07T05:32:00.233Z,11805.00
2023-04-07T05:33:00.225Z,11603.00
2023-04-07T05:34:00.151Z,11514.00
2023-04-07T05:35:00.179Z,11369.00
2023-04-07T05:36:00.237Z,11285.00
2023-04-07T05:37:00.166Z,11139.00
2023-04-07T05:38:00.163Z,10983.00
2023-04-07T05:39:00.233Z,10921.00
2023-04-07T05:40:00.221Z,10960.00
2023-04-07T05:41:00.204Z,11125.00
2023-04-07T05:42:00.201Z,11234.00
2023-04-07T05:43:00.213Z,11392.00
2023-04-07T05:44:00.201Z,11431.00
2023-04-07T05:45:00.221Z,11389.00
2023-04-07T05:46:00.280Z,11317.00
2023-04-07T05:47:00.204Z,11328.00
2023-04-07T05:48:00.332Z,11395.00
2023-04-07T05:49:04.602Z,11376.00
2023-04-07T05:50:01.212Z,11280.00
2023-04-07T05:51:00.217Z,11352.00
2023-04-07T05:52:00.183Z,11376.00
2023-04-07T05:53:00.189Z,11265.00
2023-04-07T05:54:00.210Z,11239.00
2023-04-07T05:55:00.171Z,11187.00
2023-04-07T05:56:00.177Z,11157.00
2023-04-07T05:57:00.161Z,11106.00
2023-04-07T05:58:00.167Z,11093.00
2023-04-07T05:59:00.128Z,11104.00
2023-04-07T06:00:00.145Z,11224.00
2023-04-07T06:01:00.143Z,11184.00
2023-04-07T06:02:00.187Z,11054.00
2023-04-07T06:03:00.204Z,10926.00
2023-04-07T06:04:00.216Z,10853.00
2023-04-07T06:05:00.182Z,10842.00
2023-04-07T06:06:00.117Z,10792.00
2023-04-07T06:07:00.119Z,10713.00
2023-04-07T06:08:00.100Z,10647.00
2023-04-07T06:09:00.095Z,10237.00
2023-04-07T06:10:00.061Z,9842.00
2023-04-07T06:11:00.046Z,9686.00
2023-04-07T06:12:00.044Z,9663.00
2023-04-07T06:13:00.041Z,9687.00
2023-04-07T06:14:00.056Z,9736.00
2023-04-07T06:15:00.041Z,9781.00
2023-04-07T06:16:00.020Z,9772.00
2023-04-07T06:17:00.082Z,9697.00
2023-04-07T06:18:00.067Z,9627.00
2023-04-07T06:18:59.988Z,9627.00
2023-04-07T06:19:59.988Z,9527.00
2023-04-07T06:20:59.985Z,9490.00
2023-04-07T06:21:59.991Z,9416.00
2023-04-07T06:22:59.986Z,9382.00
2023-04-07T06:23:59.957Z,9404.00
2023-04-07T06:24:59.974Z,9498.00
2023-04-07T06:25:59.974Z,9466.00
2023-04-07T06:26:59.997Z,9528.00
2023-04-07T06:28:00.039Z,9663.00
2023-04-07T06:29:00.004Z,9780.00
2023-04-07T06:30:00.013Z,10011.00
2023-04-07T06:31:00.196Z,10188.00
2023-04-07T06:32:00.003Z,10275.00
2023-04-07T06:33:00.110Z,10285.00
2023-04-07T06:34:00.036Z,10198.00
2023-04-07T06:35:00.038Z,10101.00
2023-04-07T06:36:00.033Z,9899.00
2023-04-07T06:37:00.166Z,9841.00
2023-04-07T06:38:00.048Z,9738.00
2023-04-07T06:39:00.036Z,9620.00
2023-04-07T06:40:00.071Z,9551.00
2023-04-07T06:41:00.062Z,9387.00
2023-04-07T06:42:00.058Z,9210.00
2023-04-07T06:43:00.107Z,9160.00
2023-04-07T06:44:00.128Z,9027.00
2023-04-07T06:45:00.150Z,8908.00
2023-04-07T06:46:00.203Z,8745.00
2023-04-07T06:47:00.215Z,8687.00
2023-04-07T06:48:00.256Z,8738.00
2023-04-07T06:49:00.465Z,8635.00
2023-04-07T06:50:00.306Z,8516.00
2023-04-07T06:51:00.276Z,8459.00
2023-04-07T06:52:00.273Z,8412.00
2023-04-07T06:53:00.276Z,8434.00
2023-04-07T06:54:00.329Z,8443.00
2023-04-07T06:55:00.283Z,8506.00
2023-04-07T06:56:00.360Z,8568.00
2023-04-07T06:57:00.353Z,8538.00
2023-04-07T06:58:00.379Z,8564.00
2023-04-07T06:59:00.421Z,8563.00
2023-04-07T07:00:00.446Z,8411.00
2023-04-07T07:01:00.493Z,8568.00
2023-04-07T07:02:00.574Z,8659.00
2023-04-07T07:03:00.538Z,8574.00
2023-04-07T07:04:00.514Z,8801.00
2023-04-07T07:05:00.467Z,9028.00
2023-04-07T07:06:00.522Z,9086.00
2023-04-07T07:07:00.483Z,8901.00
2023-04-07T07:08:00.483Z,8326.00
2023-04-07T07:09:00.487Z,7884.00
2023-04-07T07:10:00.485Z,7779.00
2023-04-07T07:11:00.535Z,7652.00
2023-04-07T07:12:01.587Z,7741.00
2023-04-07T07:13:00.689Z,7764.00
2023-04-07T07:14:00.725Z,7328.00
2023-04-07T07:15:00.775Z,6689.00
2023-04-07T07:16:00.858Z,6561.00
2023-04-07T07:17:00.859Z,6362.00
2023-04-07T07:18:00.949Z,6282.00
2023-04-07T07:19:00.934Z,6427.00
2023-04-07T07:20:00.957Z,6755.00
2023-04-07T07:21:00.985Z,6985.00
2023-04-07T07:22:01.004Z,7025.00
2023-04-07T07:23:01.024Z,6931.00
2023-04-07T07:24:01.074Z,6923.00
2023-04-07T07:25:01.116Z,6724.00
2023-04-07T07:26:01.121Z,6685.00
2023-04-07T07:27:01.147Z,6590.00
2023-04-07T07:28:01.157Z,6638.00
2023-04-07T07:29:01.180Z,6797.00
2023-04-07T07:30:01.229Z,6697.00
2023-04-07T07:31:01.279Z,6575.00
2023-04-07T07:32:01.240Z,6617.00
2023-04-07T07:33:01.275Z,6723.00
2023-04-07T07:34:01.267Z,6650.00
2023-04-07T07:35:01.557Z,6591.00
2023-04-07T07:36:01.260Z,6524.00
2023-04-07T07:37:01.264Z,6413.00
2023-04-07T07:38:01.259Z,6268.00
2023-04-07T07:39:01.269Z,6170.00
2023-04-07T07:40:01.241Z,6143.00
2023-04-07T07:41:01.259Z,6164.00
2023-04-07T07:42:01.278Z,5948.00
2023-04-07T07:43:01.323Z,5947.00
2023-04-07T07:44:01.321Z,6016.00
2023-04-07T07:45:01.348Z,6121.00
2023-04-07T07:46:01.442Z,6214.00
2023-04-07T07:47:01.415Z,6178.00
2023-04-07T07:48:01.480Z,6147.00
2023-04-07T07:49:01.662Z,6044.00
2023-04-07T07:50:01.516Z,5912.00
2023-04-07T07:51:01.540Z,5569.00
2023-04-07T07:52:01.566Z,4833.00
2023-04-07T07:53:01.601Z,4531.00
2023-04-07T07:54:01.613Z,4441.00
2023-04-07T07:55:01.660Z,4646.00
2023-04-07T07:56:01.700Z,4600.00
2023-04-07T07:57:01.783Z,4478.00
2023-04-07T07:58:01.828Z,4299.00
2023-04-07T07:59:01.894Z,4281.00
2023-04-07T08:00:01.977Z,4285.00
2023-04-07T08:01:02.026Z,4273.00
2023-04-07T08:02:02.103Z,4293.00
2023-04-07T08:03:02.181Z,4205.00
2023-04-07T08:04:02.437Z,4133.00
2023-04-07T08:05:02.332Z,4099.00
2023-04-07T08:06:02.318Z,3883.00
2023-04-07T08:07:02.354Z,3547.00
2023-04-07T08:08:02.419Z,3401.00
2023-04-07T08:09:02.454Z,3373.00
2023-04-07T08:10:02.528Z,3413.00
2023-04-07T08:11:02.567Z,3402.00
2023-04-07T08:12:02.613Z,2998.00
2023-04-07T08:13:02.626Z,2777.00
2023-04-07T08:14:02.654Z,2688.00
2023-04-07T08:15:02.682Z,2428.00
2023-04-07T08:16:02.704Z,2334.00
2023-04-07T08:17:02.676Z,2309.00
2023-04-07T08:18:02.700Z,2387.00
2023-04-07T08:19:02.700Z,2448.00
2023-04-07T08:20:02.707Z,2536.00
2023-04-07T08:21:02.728Z,2593.00
2023-04-07T08:22:02.705Z,2683.00
2023-04-07T08:23:02.707Z,2986.00
2023-04-07T08:24:02.744Z,3154.00
2023-04-07T08:25:02.773Z,3140.00
2023-04-07T08:26:02.794Z,2933.00
2023-04-07T08:27:02.818Z,2749.00
2023-04-07T08:28:02.853Z,2514.00
2023-04-07T08:29:02.855Z,2372.00
2023-04-07T08:30:02.882Z,2186.00
2023-04-07T08:31:02.892Z,2275.00
2023-04-07T08:32:02.884Z,2354.00
2023-04-07T08:33:02.931Z,2504.00
2023-04-07T08:34:02.893Z,2638.00
2023-04-07T08:35:02.916Z,2470.00
2023-04-07T08:36:02.948Z,2158.00
2023-04-07T08:37:02.913Z,1950.00
2023-04-07T08:38:02.910Z,1938.00
2023-04-07T08:39:02.922Z,1934.00
2023-04-07T08:40:02.925Z,1885.00
2023-04-07T08:41:02.952Z,1735.00
2023-04-07T08:42:02.962Z,1651.00
2023-04-07T08:43:02.944Z,1612.00
2023-04-07T08:44:03.014Z,1539.00
2023-04-07T08:45:03.047Z,1478.00
2023-04-07T08:46:03.116Z,1353.00
2023-04-07T08:47:03.204Z,1377.00
2023-04-07T08:48:03.248Z,1516.00
2023-04-07T08:49:03.280Z,1551.00
2023-04-07T08:50:03.333Z,1575.00
2023-04-07T08:51:03.383Z,1552.00
2023-04-07T08:52:05.358Z,1495.00
2023-04-07T08:53:04.448Z,1390.00
2023-04-07T08:54:03.518Z,1311.00
2023-04-07T08:55:03.512Z,1268.00
2023-04-07T08:56:03.546Z,1156.00
2023-04-07T08:57:03.605Z,1134.00
2023-04-07T08:58:03.636Z,1108.00
2023-04-07T08:59:03.655Z,1186.00
2023-04-07T09:00:03.715Z,1365.00
2023-04-07T09:01:03.771Z,1562.00
2023-04-07T09:02:03.812Z,1600.00
2023-04-07T09:03:03.880Z,1429.00
2023-04-07T09:04:03.849Z,1303.00
2023-04-07T09:05:03.875Z,1150.00
2023-04-07T09:06:03.913Z,1120.00
2023-04-07T09:07:03.894Z,1111.00
2023-04-07T09:08:03.916Z,1076.00
2023-04-07T09:09:03.909Z,1110.00
2023-04-07T09:10:03.919Z,1068.00
2023-04-07T09:11:03.939Z,896.00
2023-04-07T09:12:03.915Z,724.00
2023-04-07T09:13:03.948Z,665.00
2023-04-07T09:14:03.986Z,684.00
2023-04-07T09:15:03.986Z,669.00
2023-04-07T09:16:04.068Z,779.00
2023-04-07T09:17:04.041Z,1094.00
2023-04-07T09:18:04.060Z,998.00
2023-04-07T09:19:04.052Z,605.00
2023-04-07T09:20:04.071Z,488.00
2023-04-07T09:21:04.093Z,440.00
2023-04-07T09:22:04.110Z,449.00
2023-04-07T09:23:04.121Z,503.00
2023-04-07T09:24:04.135Z,503.00
2023-04-07T09:25:04.163Z,503.00
2023-04-07T09:26:04.188Z,571.00
2023-04-07T09:27:04.191Z,921.00
2023-04-07T09:28:04.216Z,926.00
2023-04-07T09:29:04.204Z,654.00
2023-04-07T09:30:04.200Z,604.00
2023-04-07T09:31:04.236Z,665.00
2023-04-07T09:32:04.315Z,758.00
2023-04-07T09:33:04.266Z,880.00
2023-04-07T09:34:04.280Z,972.00
2023-04-07T09:35:04.281Z,1108.00
2023-04-07T09:36:04.307Z,1330.00
2023-04-07T09:37:04.309Z,1463.00
2023-04-07T09:38:04.371Z,1458.00
2023-04-07T09:39:04.417Z,1414.00
2023-04-07T09:40:04.467Z,1421.00
2023-04-07T09:41:04.557Z,1399.00
2023-04-07T09:42:04.563Z,1265.00
2023-04-07T09:43:04.620Z,1091.00
2023-04-07T09:44:04.689Z,1054.00
2023-04-07T09:45:04.723Z,1047.00
2023-04-07T09:46:04.783Z,1002.00
2023-04-07T09:47:04.840Z,809.00
2023-04-07T09:48:04.913Z,776.00
2023-04-07T09:49:04.935Z,854.00
2023-04-07T09:50:04.993Z,757.00
2023-04-07T09:51:05.063Z,776.00
2023-04-07T09:52:05.176Z,944.00
2023-04-07T09:53:05.196Z,1105.00
2023-04-07T09:54:05.200Z,1139.00
2023-04-07T09:55:05.249Z,1182.00
2023-04-07T09:56:05.327Z,1344.00
2023-04-07T09:57:05.387Z,1453.00
2023-04-07T09:58:05.430Z,1530.00
2023-04-07T09:59:05.493Z,1753.00
2023-04-07T10:00:05.577Z,1767.00
2023-04-07T10:01:05.651Z,1735.00
2023-04-07T10:02:05.791Z,1766.00
2023-04-07T10:03:05.928Z,1858.00
2023-04-07T10:04:05.813Z,1829.00
2023-04-07T10:05:05.812Z,1704.00
2023-04-07T10:06:05.870Z,1532.00
2023-04-07T10:07:05.934Z,1343.00
2023-04-07T10:08:05.973Z,1275.00
2023-04-07T10:09:06.047Z,1295.00
2023-04-07T10:10:06.091Z,1369.00
2023-04-07T10:11:06.140Z,1404.00
2023-04-07T10:12:06.204Z,1342.00
2023-04-07T10:13:06.288Z,1359.00
2023-04-07T10:14:06.310Z,1451.00
2023-04-07T10:15:06.375Z,1474.00
2023-04-07T10:16:06.408Z,1467.00
2023-04-07T10:17:06.471Z,1620.00
2023-04-07T10:18:06.523Z,1634.00
2023-04-07T10:19:06.534Z,1749.00
2023-04-07T10:20:06.576Z,1898.00
2023-04-07T10:21:06.622Z,1909.00
2023-04-07T10:22:06.658Z,1806.00
2023-04-07T10:23:06.696Z,1773.00
2023-04-07T10:24:06.771Z,1833.00
2023-04-07T10:25:06.792Z,1881.00
2023-04-07T10:26:06.862Z,1798.00
2023-04-07T10:27:06.899Z,1820.00
2023-04-07T10:28:06.950Z,2024.00
2023-04-07T10:29:06.965Z,2153.00
2023-04-07T10:30:07.020Z,2138.00
2023-04-07T10:31:07.063Z,2111.00
2023-04-07T10:32:07.141Z,2045.00
2023-04-07T10:33:07.161Z,1839.00
2023-04-07T10:34:07.139Z,1740.00
2023-04-07T10:35:07.155Z,1670.00
2023-04-07T10:36:07.281Z,1518.00
2023-04-07T10:37:07.165Z,1461.00
2023-04-07T10:38:07.342Z,1510.00
2023-04-07T10:39:07.225Z,1545.00
2023-04-07T10:40:07.208Z,1556.00
2023-04-07T10:41:07.235Z,2005.00
2023-04-07T10:42:07.231Z,2152.00
2023-04-07T10:43:07.234Z,2111.00
2023-04-07T10:44:07.236Z,1789.00
2023-04-07T10:45:07.227Z,1642.00
2023-04-07T10:46:07.260Z,1597.00
2023-04-07T10:47:07.211Z,1679.00
2023-04-07T10:48:07.265Z,1830.00
2023-04-07T10:49:07.223Z,1782.00
2023-04-07T10:50:07.250Z,1640.00
2023-04-07T10:51:07.271Z,1545.00
2023-04-07T10:52:07.282Z,1553.00
2023-04-07T10:53:07.270Z,1503.00
2023-04-07T10:54:07.337Z,1466.00
2023-04-07T10:55:07.396Z,1685.00
2023-04-07T10:56:07.452Z,1725.00
2023-04-07T10:57:07.518Z,1543.00
2023-04-07T10:58:07.575Z,1477.00
2023-04-07T10:59:07.619Z,1477.00
2023-04-07T11:00:07.693Z,1552.00
2023-04-07T11:01:07.791Z,1605.00
2023-04-07T11:02:07.856Z,1755.00
2023-04-07T11:03:08.122Z,1761.00
2023-04-07T11:04:08.018Z,1767.00
2023-04-07T11:05:07.968Z,1721.00
2023-04-07T11:06:07.982Z,1618.00
2023-04-07T11:07:08.005Z,1400.00
2023-04-07T11:08:08.039Z,1183.00
2023-04-07T11:09:08.068Z,1038.00
2023-04-07T11:10:08.091Z,922.00
2023-04-07T11:11:08.131Z,1010.00
2023-04-07T11:12:08.154Z,1055.00
2023-04-07T11:13:08.183Z,1272.00
2023-04-07T11:14:08.187Z,1279.00
2023-04-07T11:15:08.201Z,1287.00
2023-04-07T11:16:08.282Z,1188.00
2023-04-07T11:17:08.278Z,1136.00
2023-04-07T11:18:08.281Z,1162.00
2023-04-07T11:19:08.299Z,1283.00
2023-04-07T11:20:08.301Z,1067.00
2023-04-07T11:21:08.310Z,754.00
2023-04-07T11:22:13.815Z,768.00
2023-04-07T11:23:09.306Z,776.00
2023-04-07T11:24:08.304Z,819.00
2023-04-07T11:25:08.310Z,889.00
2023-04-07T11:26:08.292Z,948.00
2023-04-07T11:27:08.298Z,944.00
2023-04-07T11:28:08.289Z,921.00
2023-04-07T11:29:08.270Z,1041.00
2023-04-07T11:30:08.340Z,1222.00
2023-04-07T11:31:08.297Z,1181.00
2023-04-07T11:32:08.269Z,1099.00
2023-04-07T11:33:08.241Z,995.00
2023-04-07T11:34:08.249Z,1100.00
2023-04-07T11:35:08.328Z,1215.00
2023-04-07T11:36:08.284Z,1170.00
2023-04-07T11:37:08.226Z,1131.00
2023-04-07T11:38:08.205Z,1133.00
2023-04-07T11:39:08.213Z,987.00
2023-04-07T11:40:08.277Z,931.00
2023-04-07T11:41:08.189Z,1022.00
2023-04-07T11:42:08.187Z,936.00
2023-04-07T11:43:08.217Z,1011.00
2023-04-07T11:44:08.168Z,807.00
2023-04-07T11:45:08.491Z,663.00
2023-04-07T11:46:08.253Z,632.00
2023-04-07T11:47:08.185Z,613.00
2023-04-07T11:48:08.201Z,681.00
2023-04-07T11:49:08.133Z,801.00
2023-04-07T11:50:08.178Z,760.00
2023-04-07T11:51:08.167Z,748.00
2023-04-07T11:52:08.171Z,700.00
2023-04-07T11:53:08.217Z,645.00
2023-04-07T11:54:08.213Z,633.00
2023-04-07T11:55:08.211Z,627.00
2023-04-07T11:56:08.261Z,595.00
2023-04-07T11:57:08.259Z,594.00
2023-04-07T11:58:08.259Z,572.00
2023-04-07T11:59:08.287Z,550.00
2023-04-07T12:00:08.303Z,583.00
2023-04-07T12:01:08.320Z,685.00
2023-04-07T12:02:08.490Z,812.00
2023-04-07T12:03:08.604Z,848.00
2023-04-07T12:04:08.675Z,878.00
2023-04-07T12:05:08.572Z,888.00
2023-04-07T12:06:08.433Z,825.00